sensor_id;sensor_type;location;lat;lon;timestamp;noise_LAeq;noise_LA_min;noise_LA_max;noise_LA01;noise_LA95
50333;Laerm;36239;48.132;-1.210;2023-01-08T00:01:51;38.67;35.04;42.71;;
50333;Laerm;36239;48.132;-1.210;2023-01-08T00:04:17;38.80;34.69;45.51;;
50333;Laerm;36239;48.132;-1.210;2023-01-08T00:06:43;38.44;33.90;47.59;;
50333;Laerm;36239;48.132;-1.210;2023-01-08T00:09:10;38.42;34.69;42.65;;
50333;Laerm;36239;48.132;-1.210;2023-01-08T00:11:36;39.54;34.69;62.05;;
50333;Laerm;36239;48.132;-1.210;2023-01-08T00:14:02;38.92;35.66;42.59;;
50333;Laerm;36239;48.132;-1.210;2023-01-08T00:16:29;39.03;33.44;46.07;;
50333;Laerm;36239;48.132;-1.210;2023-01-08T00:18:55;40.17;35.04;58.36;;
50333;Laerm;36239;48.132;-1.210;2023-01-08T00:21:21;38.76;35.36;41.96;;
50333;Laerm;36239;48.132;-1.210;2023-01-08T00:23:47;38.76;34.69;53.15;;
50333;Laerm;36239;48.132;-1.210;2023-01-08T00:26:14;38.78;34.69;58.26;;
50333;Laerm;36239;48.132;-1.210;2023-01-08T00:28:40;38.94;34.69;59.98;;
50333;Laerm;36239;48.132;-1.210;2023-01-08T00:31:07;38.95;35.94;45.27;;
50333;Laerm;36239;48.132;-1.210;2023-01-08T00:33:33;39.14;35.04;43.19;;
50333;Laerm;36239;48.132;-1.210;2023-01-08T00:36:05;39.27;35.66;43.24;;
50333;Laerm;36239;48.132;-1.210;2023-01-08T00:38:31;38.34;33.90;45.39;;
50333;Laerm;36239;48.132;-1.210;2023-01-08T00:40:57;38.20;33.44;44.80;;
50333;Laerm;36239;48.132;-1.210;2023-01-08T00:43:23;38.30;34.69;47.61;;
50333;Laerm;36239;48.132;-1.210;2023-01-08T00:45:49;38.34;34.31;42.47;;
50333;Laerm;36239;48.132;-1.210;2023-01-08T00:48:21;38.44;34.31;45.27;;
50333;Laerm;36239;48.132;-1.210;2023-01-08T00:50:47;38.35;34.69;41.61;;
50333;Laerm;36239;48.132;-1.210;2023-01-08T00:53:14;38.43;34.69;41.68;;
50333;Laerm;36239;48.132;-1.210;2023-01-08T00:55:40;38.27;34.69;48.40;;
50333;Laerm;36239;48.132;-1.210;2023-01-08T00:58:06;38.61;34.69;58.02;;
50333;Laerm;36239;48.132;-1.210;2023-01-08T01:00:32;38.25;33.44;42.47;;
50333;Laerm;36239;48.132;-1.210;2023-01-08T01:02:58;38.40;33.90;42.22;;
50333;Laerm;36239;48.132;-1.210;2023-01-08T01:05:24;38.43;34.31;46.78;;
50333;Laerm;36239;48.132;-1.210;2023-01-08T01:07:50;40.75;37.32;51.23;;
50333;Laerm;36239;48.132;-1.210;2023-01-08T01:10:16;43.13;40.23;52.57;;
50333;Laerm;36239;48.132;-1.210;2023-01-08T01:12:42;46.46;42.29;59.14;;
50333;Laerm;36239;48.132;-1.210;2023-01-08T01:15:09;50.19;44.76;57.19;;
50333;Laerm;36239;48.132;-1.210;2023-01-08T01:17:39;53.68;49.58;60.13;;
50333;Laerm;36239;48.132;-1.210;2023-01-08T01:20:06;54.20;48.57;59.75;;
50333;Laerm;36239;48.132;-1.210;2023-01-08T01:22:32;51.84;47.54;63.14;;
50333;Laerm;36239;48.132;-1.210;2023-01-08T01:24:58;53.29;47.40;74.13;;
50333;Laerm;36239;48.132;-1.210;2023-01-08T01:27:25;53.93;42.09;83.55;;
50333;Laerm;36239;48.132;-1.210;2023-01-08T01:29:51;43.18;38.37;61.76;;
50333;Laerm;36239;48.132;-1.210;2023-01-08T01:32:17;45.27;37.52;67.40;;
50333;Laerm;36239;48.132;-1.210;2023-01-08T01:34:44;40.88;35.36;64.57;;
50333;Laerm;36239;48.132;-1.210;2023-01-08T01:37:13;38.52;34.31;52.13;;
50333;Laerm;36239;48.132;-1.210;2023-01-08T01:39:40;39.66;35.04;61.80;;
50333;Laerm;36239;48.132;-1.210;2023-01-08T01:42:11;38.65;35.04;56.36;;
50333;Laerm;36239;48.132;-1.210;2023-01-08T01:44:57;46.17;35.36;74.35;;
50333;Laerm;36239;48.132;-1.210;2023-01-08T01:49:52;60.08;34.69;87.44;;
50333;Laerm;36239;48.132;-1.210;2023-01-08T01:52:19;40.97;33.44;67.26;;
50333;Laerm;36239;48.132;-1.210;2023-01-08T01:54:48;38.45;32.35;49.41;;
50333;Laerm;36239;48.132;-1.210;2023-01-08T01:57:14;49.12;34.31;77.23;;
50333;Laerm;36239;48.132;-1.210;2023-01-08T01:59:40;37.97;33.90;46.97;;
50333;Laerm;36239;48.132;-1.210;2023-01-08T02:02:06;37.90;34.31;51.98;;
50333;Laerm;36239;48.132;-1.210;2023-01-08T02:04:32;37.94;33.44;51.28;;
50333;Laerm;36239;48.132;-1.210;2023-01-08T02:09:35;37.97;33.90;43.39;;
50333;Laerm;36239;48.132;-1.210;2023-01-08T02:12:07;38.02;33.09;41.61;;
50333;Laerm;36239;48.132;-1.210;2023-01-08T02:14:48;37.99;33.44;50.43;;
50333;Laerm;36239;48.132;-1.210;2023-01-08T02:17:32;38.32;33.90;48.52;;
50333;Laerm;36239;48.132;-1.210;2023-01-08T02:20:13;38.65;33.90;43.24;;
50333;Laerm;36239;48.132;-1.210;2023-01-08T02:25:36;37.87;32.35;43.42;;
50333;Laerm;36239;48.132;-1.210;2023-01-08T02:28:08;38.31;33.90;55.73;;
50333;Laerm;36239;48.132;-1.210;2023-01-08T02:30:35;37.86;33.44;49.41;;
50333;Laerm;36239;48.132;-1.210;2023-01-08T02:33:02;37.83;33.90;42.88;;
50333;Laerm;36239;48.132;-1.210;2023-01-08T02:35:36;37.74;33.90;41.06;;
50333;Laerm;36239;48.132;-1.210;2023-01-08T02:38:03;37.83;32.35;43.24;;
50333;Laerm;36239;48.132;-1.210;2023-01-08T02:40:32;38.08;32.93;41.82;;
50333;Laerm;36239;48.132;-1.210;2023-01-08T02:43:05;38.11;34.69;43.39;;
50333;Laerm;36239;48.132;-1.210;2023-01-08T02:45:43;38.42;33.55;58.62;;
50333;Laerm;36239;48.132;-1.210;2023-01-08T02:48:11;38.07;33.44;44.15;;
50333;Laerm;36239;48.132;-1.210;2023-01-08T02:53:24;38.14;34.31;43.39;;
50333;Laerm;36239;48.132;-1.210;2023-01-08T02:55:53;38.49;33.90;45.23;;
50333;Laerm;36239;48.132;-1.210;2023-01-08T02:58:20;38.43;34.31;45.89;;
50333;Laerm;36239;48.132;-1.210;2023-01-08T03:00:47;38.50;32.93;51.05;;
50333;Laerm;36239;48.132;-1.210;2023-01-08T03:05:41;39.02;33.90;59.68;;
50333;Laerm;36239;48.132;-1.210;2023-01-08T03:08:08;38.18;34.31;42.71;;
50333;Laerm;36239;48.132;-1.210;2023-01-08T03:10:36;38.59;33.44;54.71;;
50333;Laerm;36239;48.132;-1.210;2023-01-08T03:13:04;38.17;34.31;41.22;;
50333;Laerm;36239;48.132;-1.210;2023-01-08T03:15:39;38.32;34.31;49.49;;
50333;Laerm;36239;48.132;-1.210;2023-01-08T03:18:08;38.10;33.90;50.41;;
50333;Laerm;36239;48.132;-1.210;2023-01-08T03:20:36;37.88;33.44;43.04;;
50333;Laerm;36239;48.132;-1.210;2023-01-08T03:23:03;38.00;34.31;45.14;;
50333;Laerm;36239;48.132;-1.210;2023-01-08T03:25:31;38.27;33.44;51.53;;
50333;Laerm;36239;48.132;-1.210;2023-01-08T03:27:59;38.23;33.44;49.55;;
50333;Laerm;36239;48.132;-1.210;2023-01-08T03:30:27;38.38;33.90;48.39;;
50333;Laerm;36239;48.132;-1.210;2023-01-08T03:32:55;38.01;33.44;49.19;;
50333;Laerm;36239;48.132;-1.210;2023-01-08T03:35:22;38.09;33.90;43.68;;
50333;Laerm;36239;48.132;-1.210;2023-01-08T03:38:12;41.92;34.31;65.72;;
50333;Laerm;36239;48.132;-1.210;2023-01-08T03:40:39;39.72;34.69;57.06;;
50333;Laerm;36239;48.132;-1.210;2023-01-08T03:43:08;40.15;33.90;67.25;;
50333;Laerm;36239;48.132;-1.210;2023-01-08T03:45:35;38.71;32.93;60.89;;
50333;Laerm;36239;48.132;-1.210;2023-01-08T03:48:02;38.09;33.90;50.57;;
50333;Laerm;36239;48.132;-1.210;2023-01-08T03:50:29;38.11;33.44;50.03;;
50333;Laerm;36239;48.132;-1.210;2023-01-08T03:52:56;37.99;33.44;47.84;;
50333;Laerm;36239;48.132;-1.210;2023-01-08T03:55:22;37.90;32.93;43.29;;
50333;Laerm;36239;48.132;-1.210;2023-01-08T03:57:48;37.99;33.44;42.47;;
50333;Laerm;36239;48.132;-1.210;2023-01-08T04:00:15;38.11;31.68;48.54;;
50333;Laerm;36239;48.132;-1.210;2023-01-08T04:02:41;38.26;33.90;49.35;;
50333;Laerm;36239;48.132;-1.210;2023-01-08T04:05:07;39.08;32.35;51.99;;
50333;Laerm;36239;48.132;-1.210;2023-01-08T04:07:34;39.34;34.31;45.42;;
50333;Laerm;36239;48.132;-1.210;2023-01-08T04:10:00;38.46;33.90;56.51;;
50333;Laerm;36239;48.132;-1.210;2023-01-08T04:12:26;38.74;32.93;50.83;;
50333;Laerm;36239;48.132;-1.210;2023-01-08T04:14:52;38.54;33.90;42.64;;
50333;Laerm;36239;48.132;-1.210;2023-01-08T04:17:18;39.26;34.69;60.52;;
50333;Laerm;36239;48.132;-1.210;2023-01-08T04:19:44;48.07;34.69;73.17;;
50333;Laerm;36239;48.132;-1.210;2023-01-08T04:22:10;40.69;34.69;67.80;;
50333;Laerm;36239;48.132;-1.210;2023-01-08T04:24:36;38.93;34.31;54.09;;
50333;Laerm;36239;48.132;-1.210;2023-01-08T04:27:02;39.96;34.69;57.84;;
50333;Laerm;36239;48.132;-1.210;2023-01-08T04:29:29;38.19;34.31;44.31;;
50333;Laerm;36239;48.132;-1.210;2023-01-08T04:31:54;38.29;33.90;48.07;;
50333;Laerm;36239;48.132;-1.210;2023-01-08T04:34:20;38.59;33.90;60.54;;
50333;Laerm;36239;48.132;-1.210;2023-01-08T04:36:46;37.94;32.93;41.96;;
50333;Laerm;36239;48.132;-1.210;2023-01-08T04:39:12;42.80;33.44;74.62;;
50333;Laerm;36239;48.132;-1.210;2023-01-08T04:41:38;39.97;35.36;49.44;;
50333;Laerm;36239;48.132;-1.210;2023-01-08T04:44:04;38.60;34.31;55.84;;
50333;Laerm;36239;48.132;-1.210;2023-01-08T04:46:30;38.47;34.69;44.08;;
50333;Laerm;36239;48.132;-1.210;2023-01-08T04:48:56;38.77;34.69;59.40;;
50333;Laerm;36239;48.132;-1.210;2023-01-08T04:51:22;38.27;33.90;48.69;;
50333;Laerm;36239;48.132;-1.210;2023-01-08T04:53:50;40.56;32.93;66.28;;
50333;Laerm;36239;48.132;-1.210;2023-01-08T04:56:16;38.29;34.31;45.30;;
50333;Laerm;36239;48.132;-1.210;2023-01-08T04:58:42;38.01;33.90;46.45;;
50333;Laerm;36239;48.132;-1.210;2023-01-08T05:01:12;40.46;34.31;64.23;;
50333;Laerm;36239;48.132;-1.210;2023-01-08T05:03:39;38.27;34.69;43.24;;
50333;Laerm;36239;48.132;-1.210;2023-01-08T05:06:05;38.46;32.93;56.44;;
50333;Laerm;36239;48.132;-1.210;2023-01-08T05:08:31;40.99;34.31;64.62;;
50333;Laerm;36239;48.132;-1.210;2023-01-08T05:10:58;38.91;35.36;55.68;;
50333;Laerm;36239;48.132;-1.210;2023-01-08T05:13:24;38.50;34.31;44.03;;
50333;Laerm;36239;48.132;-1.210;2023-01-08T05:15:50;39.12;34.31;55.10;;
50333;Laerm;36239;48.132;-1.210;2023-01-08T05:18:16;38.44;33.90;43.58;;
50333;Laerm;36239;48.132;-1.210;2023-01-08T05:20:42;38.82;34.31;52.88;;
50333;Laerm;36239;48.132;-1.210;2023-01-08T05:23:08;38.85;33.90;50.96;;
50333;Laerm;36239;48.132;-1.210;2023-01-08T05:25:34;38.72;34.31;59.35;;
50333;Laerm;36239;48.132;-1.210;2023-01-08T05:28:00;38.33;34.69;44.76;;
50333;Laerm;36239;48.132;-1.210;2023-01-08T05:30:26;38.72;33.90;53.10;;
50333;Laerm;36239;48.132;-1.210;2023-01-08T05:32:52;40.52;33.90;67.16;;
50333;Laerm;36239;48.132;-1.210;2023-01-08T05:35:18;39.34;33.90;60.91;;
50333;Laerm;36239;48.132;-1.210;2023-01-08T05:37:44;38.70;33.90;52.11;;
50333;Laerm;36239;48.132;-1.210;2023-01-08T05:40:10;39.11;34.69;50.13;;
50333;Laerm;36239;48.132;-1.210;2023-01-08T05:42:36;39.45;34.31;53.69;;
50333;Laerm;36239;48.132;-1.210;2023-01-08T05:45:03;40.61;34.69;66.21;;
50333;Laerm;36239;48.132;-1.210;2023-01-08T05:47:30;39.53;34.69;52.90;;
50333;Laerm;36239;48.132;-1.210;2023-01-08T05:49:56;38.78;34.31;50.73;;
50333;Laerm;36239;48.132;-1.210;2023-01-08T05:52:22;38.92;35.04;50.22;;
50333;Laerm;36239;48.132;-1.210;2023-01-08T05:54:48;39.32;35.04;53.53;;
50333;Laerm;36239;48.132;-1.210;2023-01-08T05:57:14;38.93;34.69;50.69;;
50333;Laerm;36239;48.132;-1.210;2023-01-08T05:59:40;38.32;34.31;45.72;;
50333;Laerm;36239;48.132;-1.210;2023-01-08T06:02:06;38.82;34.31;56.82;;
50333;Laerm;36239;48.132;-1.210;2023-01-08T06:04:33;39.72;33.90;54.83;;
50333;Laerm;36239;48.132;-1.210;2023-01-08T06:06:59;38.75;34.69;49.93;;
50333;Laerm;36239;48.132;-1.210;2023-01-08T06:09:25;39.17;34.31;56.82;;
50333;Laerm;36239;48.132;-1.210;2023-01-08T06:11:51;39.55;35.66;49.75;;
50333;Laerm;36239;48.132;-1.210;2023-01-08T06:14:17;44.71;34.31;69.89;;
50333;Laerm;36239;48.132;-1.210;2023-01-08T06:16:44;38.97;34.69;52.59;;
50333;Laerm;36239;48.132;-1.210;2023-01-08T06:19:10;39.61;35.36;52.53;;
50333;Laerm;36239;48.132;-1.210;2023-01-08T06:21:36;42.51;34.31;66.95;;
50333;Laerm;36239;48.132;-1.210;2023-01-08T06:24:03;40.93;34.69;60.31;;
50333;Laerm;36239;48.132;-1.210;2023-01-08T06:26:29;40.16;34.31;56.08;;
50333;Laerm;36239;48.132;-1.210;2023-01-08T06:28:55;40.32;34.31;60.04;;
50333;Laerm;36239;48.132;-1.210;2023-01-08T06:31:21;44.33;34.69;72.73;;
50333;Laerm;36239;48.132;-1.210;2023-01-08T06:33:47;39.33;35.04;52.48;;
50333;Laerm;36239;48.132;-1.210;2023-01-08T06:36:13;39.30;35.36;54.45;;
50333;Laerm;36239;48.132;-1.210;2023-01-08T06:38:39;40.52;35.36;60.19;;
50333;Laerm;36239;48.132;-1.210;2023-01-08T06:41:06;39.11;35.04;47.52;;
50333;Laerm;36239;48.132;-1.210;2023-01-08T06:43:33;40.26;35.04;65.78;;
50333;Laerm;36239;48.132;-1.210;2023-01-08T06:45:59;39.61;35.36;52.64;;
50333;Laerm;36239;48.132;-1.210;2023-01-08T06:48:25;47.83;35.04;67.15;;
50333;Laerm;36239;48.132;-1.210;2023-01-08T06:50:52;47.64;35.66;68.85;;
50333;Laerm;36239;48.132;-1.210;2023-01-08T06:53:18;47.45;35.36;60.27;;
50333;Laerm;36239;48.132;-1.210;2023-01-08T06:55:44;41.96;35.36;62.78;;
50333;Laerm;36239;48.132;-1.210;2023-01-08T06:58:10;42.59;34.69;63.80;;
50333;Laerm;36239;48.132;-1.210;2023-01-08T07:00:37;40.12;35.94;45.99;;
50333;Laerm;36239;48.132;-1.210;2023-01-08T07:03:04;39.50;35.66;51.41;;
50333;Laerm;36239;48.132;-1.210;2023-01-08T07:05:30;42.91;35.04;58.24;;
50333;Laerm;36239;48.132;-1.210;2023-01-08T07:07:56;43.87;35.66;64.09;;
50333;Laerm;36239;48.132;-1.210;2023-01-08T07:10:23;45.65;35.66;61.87;;
50333;Laerm;36239;48.132;-1.210;2023-01-08T07:12:49;41.95;36.69;58.16;;
50333;Laerm;36239;48.132;-1.210;2023-01-08T07:15:15;41.32;36.91;61.65;;
50333;Laerm;36239;48.132;-1.210;2023-01-08T07:17:41;43.74;38.05;54.85;;
50333;Laerm;36239;48.132;-1.210;2023-01-08T07:20:07;45.72;36.20;67.85;;
50333;Laerm;36239;48.132;-1.210;2023-01-08T07:22:34;48.71;35.66;66.16;;
50333;Laerm;36239;48.132;-1.210;2023-01-08T07:25:00;40.82;37.52;53.05;;
50333;Laerm;36239;48.132;-1.210;2023-01-08T07:27:26;49.91;35.04;67.67;;
50333;Laerm;36239;48.132;-1.210;2023-01-08T07:29:52;43.12;35.36;58.07;;
50333;Laerm;36239;48.132;-1.210;2023-01-08T07:32:20;44.57;35.59;61.88;;
50333;Laerm;36239;48.132;-1.210;2023-01-08T07:34:46;44.96;35.36;65.63;;
50333;Laerm;36239;48.132;-1.210;2023-01-08T07:37:12;40.05;35.04;55.88;;
50333;Laerm;36239;48.132;-1.210;2023-01-08T07:39:38;42.71;35.94;56.15;;
50333;Laerm;36239;48.132;-1.210;2023-01-08T07:42:04;42.96;37.12;59.27;;
50333;Laerm;36239;48.132;-1.210;2023-01-08T07:44:30;42.74;36.45;57.55;;
50333;Laerm;36239;48.132;-1.210;2023-01-08T07:46:56;43.37;35.94;61.70;;
50333;Laerm;36239;48.132;-1.210;2023-01-08T07:49:22;49.22;35.36;65.78;;
50333;Laerm;36239;48.132;-1.210;2023-01-08T07:51:48;40.09;36.69;51.87;;
50333;Laerm;36239;48.132;-1.210;2023-01-08T07:54:14;46.82;36.45;68.23;;
50333;Laerm;36239;48.132;-1.210;2023-01-08T07:56:40;41.44;36.91;60.71;;
50333;Laerm;36239;48.132;-1.210;2023-01-08T07:59:06;42.02;35.94;63.96;;
50333;Laerm;36239;48.132;-1.210;2023-01-08T08:01:32;48.83;35.36;72.59;;
50333;Laerm;36239;48.132;-1.210;2023-01-08T08:03:58;45.88;36.45;64.90;;
50333;Laerm;36239;48.132;-1.210;2023-01-08T08:06:24;50.71;36.45;70.14;;
50333;Laerm;36239;48.132;-1.210;2023-01-08T08:08:50;42.71;36.45;60.02;;
50333;Laerm;36239;48.132;-1.210;2023-01-08T08:11:16;44.69;36.69;60.25;;
50333;Laerm;36239;48.132;-1.210;2023-01-08T08:13:42;47.34;37.32;64.73;;
50333;Laerm;36239;48.132;-1.210;2023-01-08T08:16:10;45.75;35.94;71.44;;
50333;Laerm;36239;48.132;-1.210;2023-01-08T08:18:36;42.11;36.56;57.83;;
50333;Laerm;36239;48.132;-1.210;2023-01-08T08:21:02;39.99;36.69;53.12;;
50333;Laerm;36239;48.132;-1.210;2023-01-08T08:23:28;44.23;37.70;64.41;;
50333;Laerm;36239;48.132;-1.210;2023-01-08T08:25:54;58.85;36.91;90.01;;
50333;Laerm;36239;48.132;-1.210;2023-01-08T08:28:20;46.28;37.12;69.83;;
50333;Laerm;36239;48.132;-1.210;2023-01-08T08:30:46;40.86;36.69;62.47;;
50333;Laerm;36239;48.132;-1.210;2023-01-08T08:33:12;45.54;37.32;69.36;;
50333;Laerm;36239;48.132;-1.210;2023-01-08T08:35:38;48.78;36.91;79.50;;
50333;Laerm;36239;48.132;-1.210;2023-01-08T08:38:04;41.85;37.32;64.02;;
50333;Laerm;36239;48.132;-1.210;2023-01-08T08:40:30;41.04;38.21;55.38;;
50333;Laerm;36239;48.132;-1.210;2023-01-08T08:43:01;42.33;38.52;61.31;;
50333;Laerm;36239;48.132;-1.210;2023-01-08T08:45:27;57.09;38.21;86.37;;
50333;Laerm;36239;48.132;-1.210;2023-01-08T08:47:53;44.64;38.21;70.84;;
50333;Laerm;36239;48.132;-1.210;2023-01-08T08:50:19;48.37;37.32;72.89;;
50333;Laerm;36239;48.132;-1.210;2023-01-08T08:52:45;48.53;36.91;67.37;;
50333;Laerm;36239;48.132;-1.210;2023-01-08T08:55:13;46.88;37.52;68.64;;
50333;Laerm;36239;48.132;-1.210;2023-01-08T08:57:42;46.68;37.87;74.19;;
50333;Laerm;36239;48.132;-1.210;2023-01-08T09:00:08;46.81;37.32;73.87;;
50333;Laerm;36239;48.132;-1.210;2023-01-08T09:02:34;47.35;37.53;72.81;;
50333;Laerm;36239;48.132;-1.210;2023-01-08T09:05:00;52.38;37.70;75.20;;
50333;Laerm;36239;48.132;-1.210;2023-01-08T09:07:26;42.40;38.05;60.76;;
50333;Laerm;36239;48.132;-1.210;2023-01-08T09:09:52;42.01;37.88;63.79;;
50333;Laerm;36239;48.132;-1.210;2023-01-08T09:12:18;51.82;38.02;79.35;;
50333;Laerm;36239;48.132;-1.210;2023-01-08T09:14:44;46.50;37.70;71.07;;
50333;Laerm;36239;48.132;-1.210;2023-01-08T09:17:10;44.93;38.67;66.52;;
50333;Laerm;36239;48.132;-1.210;2023-01-08T09:19:36;46.46;39.21;68.80;;
50333;Laerm;36239;48.132;-1.210;2023-01-08T09:22:03;52.60;39.21;72.25;;
50333;Laerm;36239;48.132;-1.210;2023-01-08T09:24:29;54.66;42.76;79.80;;
50333;Laerm;36239;48.132;-1.210;2023-01-08T09:26:58;44.54;38.21;64.52;;
50333;Laerm;36239;48.132;-1.210;2023-01-08T09:29:24;46.88;38.05;74.74;;
50333;Laerm;36239;48.132;-1.210;2023-01-08T09:31:50;43.75;37.70;66.98;;
50333;Laerm;36239;48.132;-1.210;2023-01-08T09:34:16;43.74;38.05;59.55;;
50333;Laerm;36239;48.132;-1.210;2023-01-08T09:36:42;45.09;37.88;65.16;;
50333;Laerm;36239;48.132;-1.210;2023-01-08T09:39:08;41.54;37.52;64.72;;
50333;Laerm;36239;48.132;-1.210;2023-01-08T09:41:40;43.16;37.88;61.37;;
50333;Laerm;36239;48.132;-1.210;2023-01-08T09:44:09;41.53;37.70;56.02;;
50333;Laerm;36239;48.132;-1.210;2023-01-08T09:46:38;44.75;38.21;65.50;;
50333;Laerm;36239;48.132;-1.210;2023-01-08T09:49:05;43.18;38.21;62.18;;
50333;Laerm;36239;48.132;-1.210;2023-01-08T09:51:35;44.17;38.05;63.22;;
50333;Laerm;36239;48.132;-1.210;2023-01-08T09:54:02;47.82;37.88;74.40;;
50333;Laerm;36239;48.132;-1.210;2023-01-08T09:56:29;44.16;38.52;62.60;;
50333;Laerm;36239;48.132;-1.210;2023-01-08T09:58:57;43.15;39.08;63.96;;
50333;Laerm;36239;48.132;-1.210;2023-01-08T10:01:25;43.85;38.52;60.43;;
50333;Laerm;36239;48.132;-1.210;2023-01-08T10:03:54;43.09;38.05;68.98;;
50333;Laerm;36239;48.132;-1.210;2023-01-08T10:06:22;42.78;38.05;65.44;;
50333;Laerm;36239;48.132;-1.210;2023-01-08T10:08:49;45.42;39.08;70.20;;
50333;Laerm;36239;48.132;-1.210;2023-01-08T10:11:15;49.19;38.21;71.50;;
50333;Laerm;36239;48.132;-1.210;2023-01-08T10:13:45;56.04;38.67;81.10;;
50333;Laerm;36239;48.132;-1.210;2023-01-08T10:16:16;42.99;38.67;57.88;;
50333;Laerm;36239;48.132;-1.210;2023-01-08T10:18:44;42.75;38.37;62.67;;
50333;Laerm;36239;48.132;-1.210;2023-01-08T10:21:12;41.95;38.81;57.62;;
50333;Laerm;36239;48.132;-1.210;2023-01-08T10:23:47;49.65;38.37;78.56;;
50333;Laerm;36239;48.132;-1.210;2023-01-08T10:26:23;46.48;38.37;72.62;;
50333;Laerm;36239;48.132;-1.210;2023-01-08T10:28:49;48.48;37.88;75.83;;
50333;Laerm;36239;48.132;-1.210;2023-01-08T10:31:15;46.72;38.37;78.10;;
50333;Laerm;36239;48.132;-1.210;2023-01-08T10:33:42;44.95;38.21;71.26;;
50333;Laerm;36239;48.132;-1.210;2023-01-08T10:36:10;49.12;38.37;72.51;;
50333;Laerm;36239;48.132;-1.210;2023-01-08T10:38:42;46.88;38.81;73.61;;
50333;Laerm;36239;48.132;-1.210;2023-01-08T10:41:13;43.20;39.46;57.95;;
50333;Laerm;36239;48.132;-1.210;2023-01-08T10:46:26;42.21;38.81;54.17;;
50333;Laerm;36239;48.132;-1.210;2023-01-08T10:48:53;42.45;38.95;58.88;;
50333;Laerm;36239;48.132;-1.210;2023-01-08T10:51:21;49.34;38.95;77.04;;
50333;Laerm;36239;48.132;-1.210;2023-01-08T10:53:51;43.89;38.81;67.47;;
50333;Laerm;36239;48.132;-1.210;2023-01-08T10:58:43;51.00;38.95;74.21;;
50333;Laerm;36239;48.132;-1.210;2023-01-08T11:01:10;43.26;38.37;66.04;;
50333;Laerm;36239;48.132;-1.210;2023-01-08T11:03:37;43.79;38.52;67.24;;
50333;Laerm;36239;48.132;-1.210;2023-01-08T11:06:09;53.50;38.37;72.93;;
50333;Laerm;36239;48.132;-1.210;2023-01-08T11:08:35;49.33;37.52;72.47;;
50333;Laerm;36239;48.132;-1.210;2023-01-08T11:11:01;48.53;39.70;73.18;;
50333;Laerm;36239;48.132;-1.210;2023-01-08T11:13:27;44.71;39.08;73.88;;
50333;Laerm;36239;48.132;-1.210;2023-01-08T11:15:59;44.25;39.21;69.09;;
50333;Laerm;36239;48.132;-1.210;2023-01-08T11:18:26;58.08;39.58;84.44;;
50333;Laerm;36239;48.132;-1.210;2023-01-08T11:20:53;54.85;39.58;85.02;;
50333;Laerm;36239;48.132;-1.210;2023-01-08T11:23:30;45.82;38.67;70.00;;
50333;Laerm;36239;48.132;-1.210;2023-01-08T11:28:32;47.57;38.74;76.36;;
50333;Laerm;36239;48.132;-1.210;2023-01-08T11:31:09;44.44;38.47;62.05;;
50333;Laerm;36239;48.132;-1.210;2023-01-08T11:33:38;44.95;38.37;69.45;;
50333;Laerm;36239;48.132;-1.210;2023-01-08T11:36:22;50.77;38.95;73.20;;
50333;Laerm;36239;48.132;-1.210;2023-01-08T11:38:51;45.43;40.13;65.43;;
50333;Laerm;36239;48.132;-1.210;2023-01-08T11:41:34;49.54;39.46;68.53;;
50333;Laerm;36239;48.132;-1.210;2023-01-08T11:44:16;47.79;38.67;74.85;;
50333;Laerm;36239;48.132;-1.210;2023-01-08T11:49:30;43.41;38.52;63.61;;
50333;Laerm;36239;48.132;-1.210;2023-01-08T11:54:41;55.39;38.21;74.36;;
50333;Laerm;36239;48.132;-1.210;2023-01-08T12:10:11;51.76;37.88;73.05;;
50333;Laerm;36239;48.132;-1.210;2023-01-08T12:20:41;44.34;37.52;60.16;;
50333;Laerm;36239;48.132;-1.210;2023-01-08T12:26:06;42.24;37.52;60.90;;
50333;Laerm;36239;48.132;-1.210;2023-01-08T12:35:57;47.15;38.52;71.02;;
50333;Laerm;36239;48.132;-1.210;2023-01-08T12:38:29;47.50;37.52;70.17;;
50333;Laerm;36239;48.132;-1.210;2023-01-08T12:40:58;40.93;36.69;59.79;;
50333;Laerm;36239;48.132;-1.210;2023-01-08T12:43:27;40.87;36.91;51.37;;
50333;Laerm;36239;48.132;-1.210;2023-01-08T12:45:57;46.63;36.45;74.31;;
50333;Laerm;36239;48.132;-1.210;2023-01-08T12:48:26;42.96;36.45;62.75;;
50333;Laerm;36239;48.132;-1.210;2023-01-08T12:59:13;42.93;37.52;63.02;;
50333;Laerm;36239;48.132;-1.210;2023-01-08T13:01:35;42.21;36.91;64.75;;
50333;Laerm;36239;48.132;-1.210;2023-01-08T13:04:03;48.74;38.95;78.45;;
50333;Laerm;36239;48.132;-1.210;2023-01-08T13:06:29;44.67;38.95;58.31;;
50333;Laerm;36239;48.132;-1.210;2023-01-08T13:08:56;43.02;37.12;71.51;;
50333;Laerm;36239;48.132;-1.210;2023-01-08T13:11:32;51.66;36.91;77.62;;
50333;Laerm;36239;48.132;-1.210;2023-01-08T13:14:05;47.97;38.05;73.80;;
50333;Laerm;36239;48.132;-1.210;2023-01-08T13:16:38;42.83;36.91;63.70;;
50333;Laerm;36239;48.132;-1.210;2023-01-08T13:19:05;41.72;35.36;64.34;;
50333;Laerm;36239;48.132;-1.210;2023-01-08T13:21:33;41.80;37.12;60.85;;
50333;Laerm;36239;48.132;-1.210;2023-01-08T13:24:01;43.90;37.32;69.30;;
50333;Laerm;36239;48.132;-1.210;2023-01-08T13:26:29;47.89;37.12;76.27;;
50333;Laerm;36239;48.132;-1.210;2023-01-08T13:29:04;48.73;36.69;68.23;;
50333;Laerm;36239;48.132;-1.210;2023-01-08T13:31:37;46.25;37.12;70.93;;
50333;Laerm;36239;48.132;-1.210;2023-01-08T13:34:16;43.91;36.69;63.45;;
50333;Laerm;36239;48.132;-1.210;2023-01-08T13:36:53;52.76;36.91;80.51;;
50333;Laerm;36239;48.132;-1.210;2023-01-08T13:39:22;56.37;37.52;80.70;;
50333;Laerm;36239;48.132;-1.210;2023-01-08T13:44:28;64.83;38.21;98.00;;
50333;Laerm;36239;48.132;-1.210;2023-01-08T13:46:55;58.18;38.21;86.67;;
50333;Laerm;36239;48.132;-1.210;2023-01-08T13:49:27;47.01;37.70;75.33;;
50333;Laerm;36239;48.132;-1.210;2023-01-08T13:51:53;52.88;39.08;84.58;;
50333;Laerm;36239;48.132;-1.210;2023-01-08T13:54:21;46.08;39.08;63.57;;
50333;Laerm;36239;48.132;-1.210;2023-01-08T13:56:51;43.60;38.81;66.27;;
50333;Laerm;36239;48.132;-1.210;2023-01-08T13:59:19;58.56;38.67;86.61;;
50333;Laerm;36239;48.132;-1.210;2023-01-08T14:01:52;53.75;37.32;79.99;;
50333;Laerm;36239;48.132;-1.210;2023-01-08T14:04:19;42.97;39.08;60.96;;
50333;Laerm;36239;48.132;-1.210;2023-01-08T14:06:45;46.71;38.67;71.13;;
50333;Laerm;36239;48.132;-1.210;2023-01-08T14:09:16;53.63;40.43;79.54;;
50333;Laerm;36239;48.132;-1.210;2023-01-08T14:11:45;55.43;41.82;81.44;;
50333;Laerm;36239;48.132;-1.210;2023-01-08T14:14:12;63.82;41.53;91.50;;
50333;Laerm;36239;48.132;-1.210;2023-01-08T14:16:38;54.10;39.81;79.48;;
50333;Laerm;36239;48.132;-1.210;2023-01-08T14:19:05;66.55;39.81;94.55;;
50333;Laerm;36239;48.132;-1.210;2023-01-08T14:21:31;55.78;40.62;82.65;;
50333;Laerm;36239;48.132;-1.210;2023-01-08T14:23:57;52.96;39.46;78.87;;
50333;Laerm;36239;48.132;-1.210;2023-01-08T14:26:28;54.85;39.70;80.48;;
50333;Laerm;36239;48.132;-1.210;2023-01-08T14:28:56;46.74;39.08;70.75;;
50333;Laerm;36239;48.132;-1.210;2023-01-08T14:31:23;52.48;39.46;81.03;;
50333;Laerm;36239;48.132;-1.210;2023-01-08T14:33:50;54.85;38.37;84.18;;
50333;Laerm;36239;48.132;-1.210;2023-01-08T14:36:17;47.60;37.70;69.05;;
50333;Laerm;36239;48.132;-1.210;2023-01-08T14:38:43;53.21;38.32;81.59;;
50333;Laerm;36239;48.132;-1.210;2023-01-08T14:41:16;50.17;39.58;77.87;;
50333;Laerm;36239;48.132;-1.210;2023-01-08T14:43:46;60.67;40.03;87.60;;